createdAt,value
2022-12-20T00:01:37.227Z,6.38
2022-12-20T00:04:05.906Z,7.55
2022-12-20T00:06:35.254Z,6.00
2022-12-20T00:09:03.492Z,7.22
2022-12-20T00:11:30.958Z,6.22
2022-12-20T00:13:58.702Z,6.30
2022-12-20T00:16:28.302Z,5.72
2022-12-20T00:19:03.651Z,7.15
2022-12-20T00:21:31.261Z,4.65
2022-12-20T00:23:58.481Z,6.35
2022-12-20T00:26:30.460Z,6.63
2022-12-20T00:28:58.038Z,7.07
2022-12-20T00:31:26.042Z,7.53
2022-12-20T00:33:54.570Z,6.47
2022-12-20T00:36:22.465Z,6.57
2022-12-20T00:38:50.722Z,6.78
2022-12-20T00:41:22.372Z,6.93
2022-12-20T00:43:51.408Z,6.78
2022-12-20T00:46:19.663Z,7.30
2022-12-20T00:48:47.144Z,7.05
2022-12-20T00:51:17.940Z,6.43
2022-12-20T00:53:45.323Z,4.90
2022-12-20T00:56:12.858Z,7.35
2022-12-20T00:58:41.396Z,6.68
2022-12-20T01:01:25.843Z,5.38
2022-12-20T01:06:20.491Z,7.78
2022-12-20T01:08:47.737Z,6.95
2022-12-20T01:11:20.750Z,6.75
2022-12-20T01:13:50.541Z,7.55
2022-12-20T01:16:38.419Z,6.22
2022-12-20T01:19:06.837Z,6.97
2022-12-20T01:21:34.262Z,6.95
2022-12-20T01:24:01.471Z,8.43
2022-12-20T01:26:31.099Z,8.05
2022-12-20T01:28:59.915Z,8.00
2022-12-20T01:31:27.651Z,5.65
2022-12-20T01:33:54.811Z,6.30
2022-12-20T01:36:27.739Z,7.78
2022-12-20T01:39:08.659Z,6.93
2022-12-20T01:41:37.929Z,7.55
2022-12-20T01:44:25.291Z,8.73
2022-12-20T01:46:53.729Z,6.82
2022-12-20T01:49:32.277Z,8.02
2022-12-20T01:52:07.667Z,6.82
2022-12-20T01:54:43.810Z,7.50
2022-12-20T01:57:56.031Z,7.50
2022-12-20T02:00:23.461Z,8.57
2022-12-20T02:02:51.113Z,7.30
2022-12-20T02:05:21.183Z,7.28
2022-12-20T02:07:50.128Z,8.90
2022-12-20T02:10:17.731Z,7.57
2022-12-20T02:12:46.301Z,7.07
2022-12-20T02:15:17.197Z,7.95
2022-12-20T02:17:50.159Z,7.53
2022-12-20T02:20:35.518Z,7.80
2022-12-20T02:23:24.573Z,6.30
2022-12-20T02:26:31.752Z,7.05
2022-12-20T02:29:35.826Z,6.50
2022-12-20T02:32:22.598Z,7.82
2022-12-20T02:34:49.874Z,7.82
2022-12-20T02:37:17.274Z,7.78
2022-12-20T02:39:44.806Z,8.40
2022-12-20T02:42:14.211Z,8.32
2022-12-20T02:45:19.879Z,7.25
2022-12-20T02:47:57.237Z,6.68
2022-12-20T02:50:32.277Z,7.93
2022-12-20T02:52:59.732Z,8.43
2022-12-20T02:55:53.301Z,8.70
2022-12-20T02:58:37.494Z,7.43
2022-12-20T03:03:19.152Z,8.82
2022-12-20T03:05:47.611Z,8.30
2022-12-20T03:08:19.492Z,7.18
2022-12-20T03:10:47.300Z,8.02
2022-12-20T03:13:14.511Z,8.50
2022-12-20T03:18:16.095Z,7.15
2022-12-20T03:20:43.508Z,8.70
2022-12-20T03:23:10.702Z,9.05
2022-12-20T03:25:39.083Z,11.00
2022-12-20T03:28:09.001Z,10.98
2022-12-20T03:30:36.851Z,11.70
2022-12-20T03:33:04.080Z,10.82
2022-12-20T03:35:31.674Z,11.30
2022-12-20T03:37:59.067Z,12.02
2022-12-20T03:40:26.511Z,9.90
2022-12-20T03:42:54.304Z,9.82
2022-12-20T03:45:21.656Z,10.13
2022-12-20T03:47:49.351Z,9.45
2022-12-20T03:50:16.665Z,10.00
2022-12-20T03:52:44.218Z,9.77
2022-12-20T03:55:12.691Z,9.10
2022-12-20T03:57:42.345Z,9.32
2022-12-20T04:00:23.505Z,8.50
2022-12-20T04:02:55.434Z,9.93
2022-12-20T04:05:23.298Z,10.00
2022-12-20T04:07:51.135Z,10.88
2022-12-20T04:10:18.412Z,10.18
2022-12-20T04:12:45.940Z,11.10
2022-12-20T04:15:16.045Z,11.48
2022-12-20T04:17:44.893Z,10.85
2022-12-20T04:20:21.657Z,11.40
2022-12-20T04:22:56.886Z,11.52
2022-12-20T04:25:24.109Z,15.93
2022-12-20T04:27:51.981Z,14.60
2022-12-20T04:30:19.206Z,12.80
2022-12-20T04:32:46.553Z,12.77
2022-12-20T04:35:13.884Z,12.55
2022-12-20T04:37:42.995Z,12.40
2022-12-20T04:40:10.955Z,12.48
2022-12-20T04:42:49.685Z,11.20
2022-12-20T04:45:17.616Z,12.13
2022-12-20T04:47:45.095Z,13.20
2022-12-20T04:50:14.625Z,14.48
2022-12-20T04:53:02.557Z,11.25
2022-12-20T04:55:30.207Z,12.15
2022-12-20T04:58:02.127Z,10.77
2022-12-20T05:00:35.495Z,12.13
2022-12-20T05:03:10.682Z,11.25
2022-12-20T05:05:38.076Z,12.27
2022-12-20T05:08:05.345Z,11.32
2022-12-20T05:10:32.538Z,10.68
2022-12-20T05:13:08.854Z,11.35
2022-12-20T05:15:40.382Z,10.68
2022-12-20T05:18:07.936Z,12.38
2022-12-20T05:20:45.225Z,11.55
2022-12-20T05:23:31.212Z,11.88
2022-12-20T05:26:18.228Z,11.55
2022-12-20T05:28:45.962Z,11.52
2022-12-20T05:31:13.343Z,12.82
2022-12-20T05:33:40.577Z,11.18
2022-12-20T05:36:09.332Z,11.32
2022-12-20T05:38:37.073Z,10.75
2022-12-20T05:41:10.806Z,10.70
2022-12-20T05:43:38.260Z,10.43
2022-12-20T05:46:05.810Z,11.05
2022-12-20T05:48:41.755Z,9.68
2022-12-20T05:51:09.551Z,9.73
2022-12-20T05:53:50.805Z,9.98
2022-12-20T05:56:21.606Z,9.13
2022-12-20T05:58:48.880Z,8.38
2022-12-20T06:01:16.194Z,8.02
2022-12-20T06:03:43.493Z,9.32
2022-12-20T06:06:15.393Z,8.25
2022-12-20T06:08:45.378Z,9.25
2022-12-20T06:11:18.661Z,8.90
2022-12-20T06:13:51.117Z,9.35
2022-12-20T06:16:20.769Z,9.70
2022-12-20T06:18:48.466Z,8.98
2022-12-20T06:21:16.794Z,8.73
2022-12-20T06:23:44.649Z,8.93
2022-12-20T06:26:13.884Z,9.98
2022-12-20T06:28:52.693Z,9.90
2022-12-20T06:31:34.394Z,9.88
2022-12-20T06:34:01.649Z,9.98
2022-12-20T06:36:33.868Z,10.48
2022-12-20T06:39:07.653Z,11.27
2022-12-20T06:41:40.307Z,10.57
2022-12-20T06:44:07.918Z,10.25
2022-12-20T06:46:35.176Z,14.63
2022-12-20T06:49:02.487Z,12.63
2022-12-20T06:51:46.094Z,11.68
2022-12-20T06:54:19.315Z,11.95
2022-12-20T06:56:47.447Z,13.77
2022-12-20T06:59:14.636Z,17.13
2022-12-20T07:01:41.970Z,14.55
2022-12-20T07:04:09.238Z,20.25
2022-12-20T07:06:36.708Z,20.00
2022-12-20T07:09:04.119Z,19.15
2022-12-20T07:11:31.329Z,17.33
2022-12-20T07:13:58.830Z,13.85
2022-12-20T07:16:26.125Z,13.32
2022-12-20T07:18:56.148Z,15.43
2022-12-20T07:21:23.581Z,16.15
2022-12-20T07:23:50.740Z,17.65
2022-12-20T07:26:18.045Z,19.92
2022-12-20T07:28:45.280Z,17.83
2022-12-20T07:31:12.463Z,20.05
2022-12-20T07:33:39.761Z,22.15
2022-12-20T07:36:11.559Z,21.00
2022-12-20T07:38:38.855Z,22.42
2022-12-20T07:41:14.483Z,22.10
2022-12-20T07:43:41.999Z,20.70
2022-12-20T07:46:09.380Z,17.75
2022-12-20T07:48:36.712Z,16.83
2022-12-20T07:51:18.087Z,17.98
2022-12-20T07:53:52.375Z,21.10
2022-12-20T07:58:48.345Z,22.65
2022-12-20T08:01:15.617Z,20.45
2022-12-20T08:03:49.828Z,17.90
2022-12-20T08:06:18.048Z,19.20
2022-12-20T08:08:51.435Z,20.20
2022-12-20T08:11:18.680Z,19.43
2022-12-20T08:13:46.807Z,19.00
2022-12-20T08:16:14.434Z,20.25
2022-12-20T08:18:41.620Z,20.42
2022-12-20T08:21:09.110Z,19.25
2022-12-20T08:23:36.313Z,19.77
2022-12-20T08:26:03.481Z,19.48
2022-12-20T08:28:30.720Z,20.52
2022-12-20T08:31:06.307Z,20.67
2022-12-20T08:33:34.958Z,20.23
2022-12-20T08:36:05.591Z,19.90
2022-12-20T08:38:33.085Z,21.23
2022-12-20T08:41:11.694Z,21.05
2022-12-20T08:43:39.239Z,23.23
2022-12-20T08:46:07.193Z,22.52
2022-12-20T08:48:34.570Z,26.00
2022-12-20T08:51:08.596Z,23.60
2022-12-20T08:53:36.054Z,24.13
2022-12-20T08:56:14.898Z,24.65
2022-12-20T08:58:42.895Z,24.08
2022-12-20T09:01:15.394Z,23.83
2022-12-20T09:03:42.899Z,23.50
2022-12-20T09:06:16.145Z,23.17
2022-12-20T09:08:43.516Z,22.38
2022-12-20T09:11:22.681Z,23.10
2022-12-20T09:13:51.707Z,22.67
2022-12-20T09:16:23.451Z,21.05
2022-12-20T09:18:51.604Z,19.90
2022-12-20T09:21:19.194Z,22.48
2022-12-20T09:23:46.456Z,21.23
2022-12-20T09:26:15.311Z,23.20
2022-12-20T09:28:43.003Z,20.38
2022-12-20T09:31:16.158Z,19.45
2022-12-20T09:33:43.550Z,23.27
2022-12-20T09:36:18.217Z,21.30
2022-12-20T09:38:45.766Z,21.77
2022-12-20T09:41:29.439Z,25.23
2022-12-20T09:43:58.049Z,24.27
2022-12-20T09:46:25.407Z,23.67
2022-12-20T09:48:52.624Z,20.67
2022-12-20T09:51:32.693Z,19.00
2022-12-20T09:54:13.169Z,18.90
2022-12-20T09:57:22.379Z,18.27
2022-12-20T09:59:50.211Z,17.55
2022-12-20T10:05:24.148Z,20.20
2022-12-20T10:08:16.342Z,22.42
2022-12-20T10:10:59.662Z,19.77
2022-12-20T10:14:01.577Z,20.25
2022-12-20T10:16:45.657Z,19.63
2022-12-20T10:19:36.648Z,21.00
2022-12-20T10:22:21.177Z,20.58
2022-12-20T10:25:23.329Z,20.42
2022-12-20T10:27:52.778Z,19.30
2022-12-20T10:30:22.569Z,19.60
2022-12-20T10:32:55.028Z,16.27
2022-12-20T10:35:29.285Z,20.90
2022-12-20T10:43:42.781Z,25.23
2022-12-20T10:46:10.049Z,25.20
2022-12-20T10:48:41.873Z,27.02
2022-12-20T10:51:15.072Z,23.30
2022-12-20T10:54:03.547Z,23.13
2022-12-20T10:56:36.384Z,21.70
2022-12-20T10:59:23.981Z,21.52
2022-12-20T11:01:51.345Z,18.08
2022-12-20T11:04:36.291Z,18.05
2022-12-20T11:07:21.446Z,15.52
2022-12-20T11:10:26.412Z,16.10
2022-12-20T11:13:00.716Z,16.35
2022-12-20T11:15:37.143Z,12.38
2022-12-20T11:19:01.937Z,14.10
2022-12-20T11:21:54.843Z,11.55
2022-12-20T11:24:55.567Z,12.13
2022-12-20T11:27:53.263Z,11.77
2022-12-20T11:30:23.616Z,11.60
2022-12-20T11:33:19.668Z,12.15
2022-12-20T11:35:59.286Z,11.98
2022-12-20T11:38:43.498Z,12.18
2022-12-20T11:44:26.336Z,10.63
2022-12-20T11:47:10.504Z,12.23
2022-12-20T11:50:25.812Z,11.10
2022-12-20T11:53:00.675Z,13.88
2022-12-20T11:55:31.485Z,11.98
2022-12-20T11:58:19.419Z,12.98
2022-12-20T12:01:02.083Z,12.70
2022-12-20T12:03:37.755Z,12.98
2022-12-20T12:06:10.586Z,13.43
2022-12-20T12:08:50.432Z,16.70
2022-12-20T12:14:32.440Z,15.00
2022-12-20T12:17:05.992Z,15.25
2022-12-20T12:19:34.507Z,18.17
2022-12-20T12:22:11.078Z,16.95
2022-12-20T12:24:45.700Z,16.08
2022-12-20T12:29:47.966Z,15.77
2022-12-20T12:32:24.300Z,17.40
2022-12-20T12:35:07.208Z,17.77
2022-12-20T12:38:18.513Z,17.70
2022-12-20T12:41:10.288Z,18.23
2022-12-20T12:44:19.487Z,17.02
2022-12-20T12:47:08.167Z,16.08
2022-12-20T12:49:35.413Z,17.83
2022-12-20T12:52:03.992Z,17.77
2022-12-20T12:54:41.209Z,17.80
2022-12-20T12:57:18.805Z,16.42
2022-12-20T12:59:48.480Z,18.08
2022-12-20T13:02:17.889Z,17.48
2022-12-20T13:05:09.079Z,17.33
2022-12-20T13:07:36.596Z,16.63
2022-12-20T13:10:09.800Z,17.42
2022-12-20T13:12:36.887Z,17.08
2022-12-20T13:15:24.019Z,20.02
2022-12-20T13:18:01.001Z,18.27
2022-12-20T13:20:30.440Z,18.40
2022-12-20T13:23:10.425Z,18.67
2022-12-20T13:25:53.907Z,21.95
2022-12-20T13:28:24.069Z,20.45
2022-12-20T13:30:54.235Z,18.85
2022-12-20T13:33:38.546Z,17.02
2022-12-20T13:36:52.738Z,18.27
2022-12-20T13:39:23.045Z,20.75
2022-12-20T13:42:26.881Z,21.67
2022-12-20T13:44:54.118Z,20.77
2022-12-20T13:47:31.526Z,20.73
2022-12-20T13:50:32.899Z,19.15
2022-12-20T13:53:00.162Z,18.63
2022-12-20T13:55:37.690Z,17.65
2022-12-20T13:58:26.672Z,17.27
2022-12-20T14:00:54.396Z,18.65
2022-12-20T14:03:27.675Z,19.42
2022-12-20T14:06:05.217Z,19.80
2022-12-20T14:08:34.141Z,20.50
2022-12-20T14:11:15.278Z,20.80
2022-12-20T14:13:42.531Z,19.55
2022-12-20T14:16:18.209Z,20.52
2022-12-20T14:18:57.708Z,19.63
2022-12-20T14:21:25.223Z,19.27
2022-12-20T14:23:54.471Z,19.35
2022-12-20T14:26:51.445Z,17.85
2022-12-20T14:29:29.357Z,19.38
2022-12-20T14:31:57.292Z,21.00
2022-12-20T14:34:31.449Z,20.58
2022-12-20T14:37:36.263Z,20.92
2022-12-20T14:40:09.606Z,19.55
2022-12-20T14:42:38.605Z,20.73
2022-12-20T14:45:14.482Z,19.98
2022-12-20T14:48:06.785Z,21.48
2022-12-20T14:50:36.357Z,20.70
2022-12-20T14:53:04.186Z,20.10
2022-12-20T14:55:36.588Z,20.17
2022-12-20T14:58:25.517Z,20.37
2022-12-20T15:01:07.792Z,20.42
2022-12-20T15:03:35.599Z,20.40
2022-12-20T15:06:06.164Z,22.40
2022-12-20T15:08:34.248Z,20.83
2022-12-20T15:11:13.452Z,24.77
2022-12-20T15:13:46.723Z,22.80
2022-12-20T15:16:22.571Z,27.50
2022-12-20T15:19:01.754Z,27.15
2022-12-20T15:21:36.185Z,24.65
2022-12-20T15:24:08.931Z,21.80
2022-12-20T15:26:36.481Z,21.35
2022-12-20T15:29:04.432Z,27.30
2022-12-20T15:31:35.680Z,26.73
2022-12-20T15:34:26.082Z,35.15
2022-12-20T15:36:53.527Z,31.27
2022-12-20T15:39:21.630Z,28.67
2022-12-20T15:41:49.263Z,25.13
2022-12-20T15:44:23.688Z,27.83
2022-12-20T15:46:51.375Z,26.45
2022-12-20T15:49:24.119Z,27.30
2022-12-20T15:51:53.081Z,27.80
2022-12-20T15:54:34.011Z,28.13
2022-12-20T15:57:03.552Z,27.15
2022-12-20T16:02:29.208Z,24.77
2022-12-20T16:04:57.788Z,24.98
2022-12-20T16:07:25.074Z,26.92
2022-12-20T16:09:52.240Z,26.02
2022-12-20T16:12:32.754Z,25.25
2022-12-20T16:15:00.007Z,24.33
2022-12-20T16:17:27.238Z,23.83
2022-12-20T16:19:55.429Z,25.25
2022-12-20T16:22:23.496Z,23.25
2022-12-20T16:24:51.747Z,23.58
2022-12-20T16:27:19.394Z,22.92
2022-12-20T16:29:46.508Z,23.95
2022-12-20T16:32:18.732Z,22.95
2022-12-20T16:34:46.076Z,21.23
2022-12-20T16:37:13.981Z,21.48
2022-12-20T16:39:41.999Z,22.33
2022-12-20T16:42:17.061Z,21.20
2022-12-20T16:44:45.677Z,22.88
2022-12-20T16:47:14.620Z,21.80
2022-12-20T16:49:51.180Z,22.73
2022-12-20T16:52:20.056Z,21.85
2022-12-20T16:54:47.238Z,20.92
2022-12-20T16:57:14.488Z,21.60
2022-12-20T16:59:41.739Z,22.00
2022-12-20T17:02:29.684Z,20.60
2022-12-20T17:04:57.161Z,22.15
2022-12-20T17:07:24.464Z,21.08
2022-12-20T17:12:36.594Z,21.67
2022-12-20T17:15:04.941Z,22.52
2022-12-20T17:17:32.145Z,21.40
2022-12-20T17:20:01.598Z,22.77
2022-12-20T17:25:30.251Z,24.02
2022-12-20T17:27:57.617Z,23.52
2022-12-20T17:30:25.404Z,21.77
2022-12-20T17:32:53.781Z,21.40
2022-12-20T17:35:32.388Z,20.77
2022-12-20T17:38:01.847Z,20.75
2022-12-20T17:40:29.180Z,22.33
2022-12-20T17:42:56.436Z,24.20
2022-12-20T17:45:33.154Z,23.75
2022-12-20T17:48:00.451Z,21.27
2022-12-20T17:50:27.866Z,22.20
2022-12-20T17:52:55.457Z,21.98
2022-12-20T17:55:27.463Z,22.88
2022-12-20T17:57:55.349Z,22.27
2022-12-20T18:00:36.389Z,22.33
2022-12-20T18:03:06.152Z,21.17
2022-12-20T18:05:33.543Z,22.63
2022-12-20T18:08:00.760Z,22.38
2022-12-20T18:10:28.008Z,21.77
2022-12-20T18:12:55.191Z,22.25
2022-12-20T18:15:22.557Z,23.70
2022-12-20T18:17:50.264Z,22.25
2022-12-20T18:20:17.580Z,22.08
2022-12-20T18:22:45.096Z,22.75
2022-12-20T18:25:13.950Z,25.00
2022-12-20T18:27:42.424Z,26.52
2022-12-20T18:30:12.171Z,24.60
2022-12-20T18:32:40.514Z,23.30
2022-12-20T18:35:09.329Z,24.20
2022-12-20T18:37:37.169Z,23.25
2022-12-20T18:40:06.520Z,22.33
2022-12-20T18:42:33.765Z,24.52
2022-12-20T18:45:00.934Z,23.55
2022-12-20T18:47:28.983Z,22.92
2022-12-20T18:49:56.196Z,21.55
2022-12-20T18:52:23.492Z,24.10
2022-12-20T18:54:51.072Z,24.42
2022-12-20T18:57:18.366Z,24.75
2022-12-20T18:59:45.642Z,23.50
2022-12-20T19:02:14.590Z,23.35
2022-12-20T19:04:41.977Z,22.45
2022-12-20T19:07:09.726Z,22.05
2022-12-20T19:09:37.130Z,24.27
2022-12-20T19:12:05.465Z,24.27
2022-12-20T19:14:32.675Z,23.42
2022-12-20T19:16:59.941Z,22.35
2022-12-20T19:19:27.289Z,24.35
2022-12-20T19:21:54.547Z,25.58
2022-12-20T19:24:21.863Z,23.92
2022-12-20T19:26:50.074Z,23.60
2022-12-20T19:29:18.070Z,21.73
2022-12-20T19:31:45.438Z,22.70
2022-12-20T19:34:12.919Z,21.90
2022-12-20T19:36:45.241Z,21.98
2022-12-20T19:39:17.525Z,24.08
2022-12-20T19:41:55.129Z,20.80
2022-12-20T19:44:32.014Z,21.88
2022-12-20T19:47:05.890Z,21.90
2022-12-20T19:49:33.624Z,21.17
2022-12-20T19:52:00.819Z,20.55
2022-12-20T19:54:28.956Z,20.35
2022-12-20T19:56:56.139Z,22.80
2022-12-20T19:59:23.496Z,22.33
2022-12-20T20:01:50.975Z,21.60
2022-12-20T20:04:18.827Z,22.08
2022-12-20T20:06:48.723Z,22.63
2022-12-20T20:09:16.054Z,21.35
2022-12-20T20:11:43.236Z,20.35
2022-12-20T20:14:10.530Z,20.75
2022-12-20T20:16:38.097Z,21.13
2022-12-20T20:19:05.626Z,21.63
2022-12-20T20:21:35.067Z,22.30
2022-12-20T20:24:02.361Z,22.80
2022-12-20T20:26:31.604Z,23.67
2022-12-20T20:29:00.584Z,23.80
2022-12-20T20:31:27.964Z,23.75
2022-12-20T20:33:56.805Z,24.77
2022-12-20T20:36:24.264Z,24.48
2022-12-20T20:38:52.490Z,22.67
2022-12-20T20:41:19.785Z,22.80
2022-12-20T20:43:54.271Z,23.02
2022-12-20T20:46:21.524Z,23.67
2022-12-20T20:48:48.913Z,23.63
2022-12-20T20:51:18.490Z,22.75
2022-12-20T20:53:45.718Z,23.40
2022-12-20T20:56:12.938Z,24.17
2022-12-20T20:58:40.141Z,23.98
2022-12-20T21:01:10.807Z,22.10
2022-12-20T21:03:40.657Z,23.40
2022-12-20T21:08:58.738Z,22.92
2022-12-20T21:11:26.098Z,22.08
2022-12-20T21:13:53.954Z,24.17
2022-12-20T21:16:28.773Z,23.52
2022-12-20T21:18:57.391Z,22.70
2022-12-20T21:21:25.493Z,22.70
2022-12-20T21:23:53.230Z,23.08
2022-12-20T21:26:21.033Z,22.27
2022-12-20T21:28:48.356Z,22.13
2022-12-20T21:31:17.910Z,21.80
2022-12-20T21:33:46.154Z,21.70
2022-12-20T21:36:18.059Z,21.35
2022-12-20T21:38:53.481Z,23.88
2022-12-20T21:41:23.272Z,23.55
2022-12-20T21:43:53.773Z,22.92
2022-12-20T21:46:23.645Z,23.20
2022-12-20T21:48:54.124Z,23.70
2022-12-20T21:51:23.638Z,23.77
2022-12-20T21:53:59.031Z,24.80
2022-12-20T21:56:36.220Z,25.05
2022-12-20T21:59:04.059Z,26.58
2022-12-20T22:01:31.388Z,25.35
2022-12-20T22:04:04.572Z,24.67
2022-12-20T22:06:38.003Z,24.92
2022-12-20T22:11:38.237Z,21.63
2022-12-20T22:14:05.966Z,21.52
2022-12-20T22:16:34.878Z,21.38
2022-12-20T22:19:02.424Z,22.33
2022-12-20T22:21:31.629Z,22.52
2022-12-20T22:24:02.453Z,22.00
2022-12-20T22:26:31.701Z,27.77
2022-12-20T22:29:01.412Z,26.27
2022-12-20T22:31:28.802Z,26.95
2022-12-20T22:33:56.646Z,26.83
2022-12-20T22:36:23.970Z,25.98
2022-12-20T22:38:52.559Z,24.42
2022-12-20T22:41:22.664Z,24.30
2022-12-20T22:43:49.874Z,24.77
2022-12-20T22:49:04.865Z,27.33
2022-12-20T22:51:33.491Z,23.13
2022-12-20T22:54:01.021Z,22.70
2022-12-20T22:56:28.320Z,24.40
2022-12-20T22:58:56.036Z,22.23
2022-12-20T23:01:42.841Z,23.50
2022-12-20T23:04:10.340Z,22.13
2022-12-20T23:06:37.511Z,22.50
2022-12-20T23:09:04.667Z,21.17
2022-12-20T23:11:50.542Z,21.67
2022-12-20T23:14:38.452Z,20.77
2022-12-20T23:17:06.838Z,21.63
2022-12-20T23:19:54.067Z,20.40
2022-12-20T23:22:40.662Z,21.58
2022-12-20T23:25:10.657Z,19.45
2022-12-20T23:27:38.851Z,19.95
2022-12-20T23:30:08.860Z,21.63
2022-12-20T23:32:36.232Z,20.15
2022-12-20T23:35:12.410Z,20.20
2022-12-20T23:37:39.842Z,19.65
2022-12-20T23:40:08.205Z,17.88
2022-12-20T23:42:35.415Z,18.98
2022-12-20T23:45:02.584Z,18.50
2022-12-20T23:47:31.225Z,19.00
2022-12-20T23:49:58.399Z,18.98
2022-12-20T23:52:25.766Z,18.33
2022-12-20T23:54:53.019Z,18.02
2022-12-20T23:57:20.150Z,19.15
2022-12-20T23:59:47.313Z,20.05
